createdAt,value
2022-12-04T00:00:50.962Z,97731.03
2022-12-04T00:01:52.518Z,97735.31
2022-12-04T00:02:54.105Z,97727.78
2022-12-04T00:03:58.879Z,97732.84
2022-12-04T00:05:00.702Z,97730.38
2022-12-04T00:06:04.809Z,97735.72
2022-12-04T00:07:06.437Z,97726.09
2022-12-04T00:08:08.020Z,97730.81
2022-12-04T00:09:09.944Z,97737.81
2022-12-04T00:10:11.593Z,97734.16
2022-12-04T00:11:14.954Z,97729.63
2022-12-04T00:12:16.503Z,97731.97
2022-12-04T00:13:19.318Z,97736.25
2022-12-04T00:14:20.890Z,97737.56
2022-12-04T00:15:28.041Z,97731.41
2022-12-04T00:16:29.944Z,97737.31
2022-12-04T00:17:31.561Z,97735.22
2022-12-04T00:18:33.262Z,97737.97
2022-12-04T00:19:34.859Z,97738.59
2022-12-04T00:20:39.919Z,97734.94
2022-12-04T00:21:41.497Z,97741.91
2022-12-04T00:22:43.013Z,97740.91
2022-12-04T00:23:44.828Z,97744.66
2022-12-04T00:24:46.448Z,97744.44
2022-12-04T00:25:48.890Z,97746.31
2022-12-04T00:26:50.641Z,97735.13
2022-12-04T00:27:52.192Z,97741.03
2022-12-04T00:28:54.422Z,97740.03
2022-12-04T00:29:56.258Z,97741.16
2022-12-04T00:30:58.022Z,97733.22
2022-12-04T00:31:59.613Z,97739.13
2022-12-04T00:33:01.118Z,97742.88
2022-12-04T00:34:07.560Z,97746.63
2022-12-04T00:35:10.033Z,97746.69
2022-12-04T00:36:14.585Z,97746.09
2022-12-04T00:37:16.187Z,97740.16
2022-12-04T00:38:17.747Z,97743.03
2022-12-04T00:39:19.311Z,97737.44
2022-12-04T00:40:20.881Z,97735.25
2022-12-04T00:41:25.025Z,97739.00
2022-12-04T00:42:26.613Z,97738.19
2022-12-04T00:43:29.378Z,97733.16
2022-12-04T00:44:30.894Z,97737.97
2022-12-04T00:45:32.484Z,97739.00
2022-12-04T00:46:34.135Z,97743.78
2022-12-04T00:47:35.716Z,97733.59
2022-12-04T00:48:37.396Z,97734.63
2022-12-04T00:49:38.997Z,97738.06
2022-12-04T00:50:40.814Z,97729.31
2022-12-04T00:51:42.327Z,97734.91
2022-12-04T00:52:43.914Z,97727.41
2022-12-04T00:53:46.202Z,97732.97
2022-12-04T00:54:47.758Z,97732.97
2022-12-04T00:55:49.321Z,97735.13
2022-12-04T00:56:50.941Z,97734.13
2022-12-04T00:57:57.132Z,97741.59
2022-12-04T00:59:01.793Z,97737.84
2022-12-04T01:00:04.997Z,97736.00
2022-12-04T01:01:13.441Z,97736.00
2022-12-04T01:02:14.990Z,97739.44
2022-12-04T01:03:16.609Z,97734.13
2022-12-04T01:04:18.167Z,97735.19
2022-12-04T01:05:19.866Z,97729.59
2022-12-04T01:06:30.723Z,97734.31
2022-12-04T01:07:32.249Z,97726.63
2022-12-04T01:08:34.437Z,97725.84
2022-12-04T01:09:36.080Z,97728.50
2022-12-04T01:10:41.996Z,97725.19
2022-12-04T01:11:43.575Z,97723.84
2022-12-04T01:12:45.154Z,97719.56
2022-12-04T01:13:47.020Z,97718.50
2022-12-04T01:14:48.539Z,97719.28
2022-12-04T01:15:50.258Z,97719.00
2022-12-04T01:16:51.898Z,97717.41
2022-12-04T01:17:53.503Z,97717.19
2022-12-04T01:18:55.130Z,97719.66
2022-12-04T01:19:57.236Z,97705.31
2022-12-04T01:20:59.005Z,97707.47
2022-12-04T01:22:00.562Z,97712.78
2022-12-04T01:23:02.261Z,97706.66
2022-12-04T01:24:04.726Z,97709.84
2022-12-04T01:25:07.021Z,97712.19
2022-12-04T01:26:08.654Z,97712.44
2022-12-04T01:27:10.193Z,97709.47
2022-12-04T01:28:11.994Z,97714.25
2022-12-04T01:29:13.569Z,97714.25
2022-12-04T01:30:15.152Z,97710.25
2022-12-04T01:31:19.208Z,97716.97
2022-12-04T01:32:20.894Z,97706.59
2022-12-04T01:33:22.418Z,97698.94
2022-12-04T01:34:25.369Z,97711.78
2022-12-04T01:35:26.890Z,97712.34
2022-12-04T01:36:28.948Z,97705.00
2022-12-04T01:37:32.038Z,97711.50
2022-12-04T01:38:34.846Z,97714.25
2022-12-04T01:39:37.323Z,97716.38
2022-12-04T01:40:44.375Z,97709.56
2022-12-04T01:41:46.244Z,97707.22
2022-12-04T01:42:47.767Z,97706.22
2022-12-04T01:44:18.608Z,97710.78
2022-12-04T01:45:40.135Z,97695.94
2022-12-04T01:46:43.451Z,97698.66
2022-12-04T01:47:45.183Z,97705.16
2022-12-04T01:48:52.535Z,97700.50
2022-12-04T01:49:54.425Z,97694.72
2022-12-04T01:51:04.979Z,97699.50
2022-12-04T01:52:21.411Z,97697.31
2022-12-04T01:53:23.030Z,97694.56
2022-12-04T01:54:28.989Z,97691.63
2022-12-04T01:55:31.644Z,97699.09
2022-12-04T01:56:46.879Z,97700.47
2022-12-04T01:57:48.450Z,97689.25
2022-12-04T01:58:54.749Z,97696.63
2022-12-04T02:00:00.848Z,97689.88
2022-12-04T02:01:08.792Z,97697.28
2022-12-04T02:02:15.993Z,97692.25
2022-12-04T02:03:17.999Z,97698.06
2022-12-04T02:04:20.277Z,97697.25
2022-12-04T02:05:22.899Z,97691.06
2022-12-04T02:06:24.533Z,97691.06
2022-12-04T02:07:26.613Z,97687.63
2022-12-04T02:08:29.054Z,97690.50
2022-12-04T02:09:31.770Z,97695.25
2022-12-04T02:10:50.499Z,97695.19
2022-12-04T02:12:03.677Z,97688.25
2022-12-04T02:13:14.408Z,97690.25
2022-12-04T02:14:18.871Z,97687.53
2022-12-04T02:15:29.526Z,97681.88
2022-12-04T02:16:59.837Z,97685.81
2022-12-04T02:18:16.299Z,97696.13
2022-12-04T02:19:39.882Z,97690.44
2022-12-04T02:20:50.522Z,97696.78
2022-12-04T02:21:55.824Z,97695.41
2022-12-04T02:23:09.361Z,97692.47
2022-12-04T02:24:52.490Z,97696.22
2022-12-04T02:26:18.950Z,97693.78
2022-12-04T02:27:45.364Z,97690.31
2022-12-04T02:29:03.390Z,97689.50
2022-12-04T02:30:11.592Z,97684.59
2022-12-04T02:31:19.050Z,97688.78
2022-12-04T02:32:29.022Z,97688.00
2022-12-04T02:33:37.586Z,97687.03
2022-12-04T02:34:45.865Z,97681.19
2022-12-04T02:35:55.475Z,97687.09
2022-12-04T02:37:19.728Z,97688.13
2022-12-04T02:38:35.699Z,97687.53
2022-12-04T02:39:54.956Z,97686.53
2022-12-04T02:41:04.418Z,97686.63
2022-12-04T02:42:16.414Z,97683.03
2022-12-04T02:43:24.428Z,97680.44
2022-12-04T02:44:40.895Z,97683.16
2022-12-04T02:45:51.634Z,97673.63
2022-12-04T02:46:59.398Z,97680.06
2022-12-04T02:48:03.060Z,97685.34
2022-12-04T02:49:13.104Z,97685.25
2022-12-04T02:50:19.403Z,97692.63
2022-12-04T02:51:23.489Z,97689.59
2022-12-04T02:52:31.788Z,97691.94
2022-12-04T02:53:39.046Z,97686.31
2022-12-04T02:54:45.781Z,97689.94
2022-12-04T02:55:55.660Z,97693.84
2022-12-04T02:56:59.546Z,97694.88
2022-12-04T02:58:07.346Z,97690.03
2022-12-04T02:59:15.664Z,97695.31
2022-12-04T03:00:18.491Z,97696.34
2022-12-04T03:01:29.550Z,97695.50
2022-12-04T03:02:37.885Z,97686.66
2022-12-04T03:03:39.565Z,97697.25
2022-12-04T03:04:42.482Z,97696.97
2022-12-04T03:05:54.575Z,97692.94
2022-12-04T03:07:02.281Z,97693.94
2022-12-04T03:08:14.807Z,97698.19
2022-12-04T03:09:27.974Z,97694.66
2022-12-04T03:10:43.932Z,97698.66
2022-12-04T03:11:53.823Z,97694.31
2022-12-04T03:13:20.490Z,97689.56
2022-12-04T03:14:26.172Z,97696.47
2022-12-04T03:15:35.483Z,97697.28
2022-12-04T03:16:41.067Z,97694.91
2022-12-04T03:17:53.099Z,97698.13
2022-12-04T03:19:16.082Z,97694.97
2022-12-04T03:20:18.942Z,97697.97
2022-12-04T03:21:24.933Z,97694.53
2022-12-04T03:22:28.074Z,97699.31
2022-12-04T03:23:39.578Z,97702.56
2022-12-04T03:24:45.772Z,97699.09
2022-12-04T03:26:24.068Z,97703.63
2022-12-04T03:27:59.687Z,97703.44
2022-12-04T03:29:09.825Z,97703.75
2022-12-04T03:30:17.922Z,97702.75
2022-12-04T03:31:28.967Z,97699.56
2022-12-04T03:32:36.594Z,97699.56
2022-12-04T03:33:47.720Z,97698.53
2022-12-04T03:35:05.076Z,97699.28
2022-12-04T03:36:15.190Z,97698.88
2022-12-04T03:37:24.469Z,97701.63
2022-12-04T03:38:38.096Z,97697.66
2022-12-04T03:40:09.119Z,97699.53
2022-12-04T03:41:30.035Z,97699.03
2022-12-04T03:42:47.353Z,97695.78
2022-12-04T03:43:54.675Z,97694.16
2022-12-04T03:45:26.419Z,97701.56
2022-12-04T03:46:33.958Z,97696.81
2022-12-04T03:47:43.233Z,97699.97
2022-12-04T03:48:51.097Z,97698.91
2022-12-04T03:50:05.018Z,97704.06
2022-12-04T03:51:18.063Z,97700.19
2022-12-04T03:52:29.876Z,97702.69
2022-12-04T03:53:56.964Z,97704.34
2022-12-04T03:55:15.546Z,97698.31
2022-12-04T03:56:24.813Z,97702.56
2022-12-04T03:57:32.889Z,97705.22
2022-12-04T03:58:38.811Z,97711.59
2022-12-04T03:59:51.132Z,97713.97
2022-12-04T04:00:58.274Z,97705.41
2022-12-04T04:02:03.155Z,97709.84
2022-12-04T04:03:14.318Z,97706.03
2022-12-04T04:04:24.751Z,97707.00
2022-12-04T04:05:28.173Z,97704.84
2022-12-04T04:06:39.130Z,97712.22
2022-12-04T04:07:50.113Z,97708.16
2022-12-04T04:08:56.826Z,97718.47
2022-12-04T04:10:03.701Z,97723.47
2022-12-04T04:11:13.753Z,97725.28
2022-12-04T04:12:20.018Z,97723.63
2022-12-04T04:13:45.309Z,97722.00
2022-12-04T04:15:27.240Z,97721.41
2022-12-04T04:16:52.633Z,97720.03
2022-12-04T04:18:15.595Z,97714.94
2022-12-04T04:19:38.067Z,97712.22
2022-12-04T04:21:11.680Z,97707.84
2022-12-04T04:22:33.061Z,97706.47
2022-12-04T04:24:03.423Z,97708.78
2022-12-04T04:25:20.565Z,97708.50
2022-12-04T04:26:24.215Z,97715.72
2022-12-04T04:27:25.774Z,97722.13
2022-12-04T04:28:41.653Z,97714.13
2022-12-04T04:29:52.329Z,97716.00
2022-12-04T04:31:01.342Z,97718.38
2022-12-04T04:32:02.884Z,97716.22
2022-12-04T04:33:13.512Z,97712.47
2022-12-04T04:34:30.311Z,97722.00
2022-12-04T04:35:38.636Z,97719.03
2022-12-04T04:36:40.119Z,97710.78
2022-12-04T04:38:12.363Z,97719.25
2022-12-04T04:39:35.865Z,97716.31
2022-12-04T04:41:21.421Z,97716.03
2022-12-04T04:42:27.420Z,97724.25
2022-12-04T04:43:35.488Z,97725.03
2022-12-04T04:44:51.836Z,97722.06
2022-12-04T04:46:02.490Z,97715.97
2022-12-04T04:47:07.313Z,97711.94
2022-12-04T04:48:18.064Z,97711.34
2022-12-04T04:49:23.488Z,97710.25
2022-12-04T04:50:25.197Z,97711.84
2022-12-04T04:51:29.005Z,97713.44
2022-12-04T04:52:32.333Z,97713.66
2022-12-04T04:53:42.303Z,97715.25
2022-12-04T04:54:45.439Z,97716.84
2022-12-04T04:55:47.611Z,97716.25
2022-12-04T04:56:49.470Z,97717.84
2022-12-04T04:57:51.003Z,97718.84
2022-12-04T04:58:52.620Z,97720.44
2022-12-04T04:59:54.485Z,97719.09
2022-12-04T05:01:02.656Z,97722.84
2022-12-04T05:02:04.808Z,97725.19
2022-12-04T05:03:07.284Z,97719.56
2022-12-04T05:04:09.007Z,97720.38
2022-12-04T05:05:11.968Z,97724.44
2022-12-04T05:06:14.030Z,97716.63
2022-12-04T05:07:15.695Z,97716.91
2022-12-04T05:08:17.442Z,97722.03
2022-12-04T05:09:19.072Z,97719.16
2022-12-04T05:10:20.626Z,97722.91
2022-12-04T05:11:22.325Z,97723.97
2022-12-04T05:12:23.909Z,97713.09
2022-12-04T05:13:27.534Z,97726.50
2022-12-04T05:14:29.103Z,97716.13
2022-12-04T05:15:30.640Z,97713.25
2022-12-04T05:16:32.772Z,97718.84
2022-12-04T05:17:37.415Z,97718.34
2022-12-04T05:18:39.072Z,97716.53
2022-12-04T05:19:57.389Z,97716.53
2022-12-04T05:20:59.223Z,97715.19
2022-12-04T05:22:00.807Z,97712.72
2022-12-04T05:23:02.318Z,97717.78
2022-12-04T05:24:03.983Z,97723.38
2022-12-04T05:25:06.323Z,97720.72
2022-12-04T05:26:07.951Z,97723.66
2022-12-04T05:27:09.498Z,97728.19
2022-12-04T05:28:11.147Z,97730.38
2022-12-04T05:29:12.674Z,97720.28
2022-12-04T05:30:14.405Z,97727.53
2022-12-04T05:31:16.012Z,97727.84
2022-12-04T05:32:17.605Z,97724.50
2022-12-04T05:33:19.178Z,97730.88
2022-12-04T05:34:20.853Z,97724.84
2022-12-04T05:35:22.480Z,97728.06
2022-12-04T05:36:24.135Z,97726.19
2022-12-04T05:37:26.281Z,97725.94
2022-12-04T05:38:28.067Z,97724.34
2022-12-04T05:39:29.709Z,97733.69
2022-12-04T05:40:31.241Z,97724.13
2022-12-04T05:41:32.766Z,97724.28
2022-12-04T05:42:34.830Z,97723.22
2022-12-04T05:43:36.609Z,97726.19
2022-12-04T05:44:38.171Z,97723.25
2022-12-04T05:45:39.746Z,97725.28
2022-12-04T05:46:41.291Z,97723.38
2022-12-04T05:47:44.204Z,97727.09
2022-12-04T05:48:45.813Z,97727.56
2022-12-04T05:49:47.427Z,97730.16
2022-12-04T05:50:49.012Z,97728.25
2022-12-04T05:51:51.403Z,97724.31
2022-12-04T05:52:52.906Z,97730.06
2022-12-04T05:53:54.462Z,97724.91
2022-12-04T05:54:56.050Z,97725.06
2022-12-04T05:55:59.321Z,97719.03
2022-12-04T05:57:00.885Z,97720.78
2022-12-04T05:58:02.653Z,97719.75
2022-12-04T05:59:04.238Z,97725.63
2022-12-04T06:00:06.447Z,97724.06
2022-12-04T06:01:16.704Z,97725.16
2022-12-04T06:02:18.317Z,97728.88
2022-12-04T06:03:20.617Z,97728.84
2022-12-04T06:04:22.216Z,97715.53
2022-12-04T06:05:23.968Z,97720.09
2022-12-04T06:06:26.464Z,97711.81
2022-12-04T06:07:28.056Z,97716.88
2022-12-04T06:08:29.601Z,97712.31
2022-12-04T06:09:31.147Z,97720.25
2022-12-04T06:10:32.690Z,97718.13
2022-12-04T06:11:38.753Z,97728.28
2022-12-04T06:12:40.310Z,97730.97
2022-12-04T06:13:43.250Z,97725.69
2022-12-04T06:14:44.767Z,97733.13
2022-12-04T06:15:46.333Z,97732.66
2022-12-04T06:16:48.061Z,97732.88
2022-12-04T06:17:49.746Z,97729.16
2022-12-04T06:18:57.720Z,97735.22
2022-12-04T06:20:00.288Z,97740.13
2022-12-04T06:21:02.277Z,97736.66
2022-12-04T06:22:03.958Z,97740.88
2022-12-04T06:23:05.557Z,97736.94
2022-12-04T06:24:08.198Z,97737.72
2022-12-04T06:25:10.486Z,97736.19
2022-12-04T06:26:12.611Z,97735.66
2022-12-04T06:27:29.472Z,97739.41
2022-12-04T06:28:31.358Z,97746.56
2022-12-04T06:29:33.571Z,97738.53
2022-12-04T06:30:35.159Z,97742.16
2022-12-04T06:31:38.152Z,97741.78
2022-12-04T06:32:39.912Z,97741.75
2022-12-04T06:33:41.722Z,97747.50
2022-12-04T06:34:43.323Z,97749.06
2022-12-04T06:35:44.829Z,97747.94
2022-12-04T06:36:46.350Z,97746.78
2022-12-04T06:37:48.210Z,97741.09
2022-12-04T06:38:51.613Z,97742.38
2022-12-04T06:39:53.435Z,97743.38
2022-12-04T06:40:55.443Z,97736.91
2022-12-04T06:41:56.960Z,97741.59
2022-12-04T06:42:58.544Z,97734.31
2022-12-04T06:44:00.119Z,97743.66
2022-12-04T06:45:01.686Z,97736.13
2022-12-04T06:46:09.695Z,97737.44
2022-12-04T06:47:11.487Z,97738.19
2022-12-04T06:48:13.122Z,97737.59
2022-12-04T06:49:14.735Z,97746.09
2022-12-04T06:50:16.374Z,97739.31
2022-12-04T06:51:20.665Z,97749.72
2022-12-04T06:52:22.249Z,97750.50
2022-12-04T06:53:23.877Z,97744.91
2022-12-04T06:54:26.263Z,97740.56
2022-12-04T06:55:28.510Z,97741.66
2022-12-04T06:56:32.648Z,97736.44
2022-12-04T06:57:34.255Z,97742.19
2022-12-04T06:58:36.513Z,97742.50
2022-12-04T06:59:38.086Z,97751.00
2022-12-04T07:00:39.681Z,97746.66
2022-12-04T07:01:41.450Z,97746.09
2022-12-04T07:02:43.252Z,97745.84
2022-12-04T07:03:50.978Z,97739.91
2022-12-04T07:04:57.090Z,97739.34
2022-12-04T07:05:59.161Z,97747.91
2022-12-04T07:07:00.839Z,97743.09
2022-12-04T07:08:02.748Z,97742.28
2022-12-04T07:09:04.576Z,97734.88
2022-12-04T07:10:07.154Z,97738.25
2022-12-04T07:11:09.200Z,97741.78
2022-12-04T07:12:10.758Z,97733.84
2022-12-04T07:13:12.389Z,97735.22
2022-12-04T07:14:14.658Z,97734.50
2022-12-04T07:15:16.264Z,97742.50
2022-12-04T07:16:21.202Z,97744.88
2022-12-04T07:17:22.788Z,97744.53
2022-12-04T07:18:24.379Z,97749.19
2022-12-04T07:19:26.102Z,97744.97
2022-12-04T07:20:28.147Z,97740.63
2022-12-04T07:21:31.642Z,97741.13
2022-12-04T07:22:33.330Z,97737.91
2022-12-04T07:23:35.620Z,97735.72
2022-12-04T07:24:40.370Z,97734.94
2022-12-04T07:25:42.003Z,97737.31
2022-12-04T07:26:44.458Z,97739.97
2022-12-04T07:27:46.214Z,97741.78
2022-12-04T07:28:48.934Z,97738.03
2022-12-04T07:29:52.922Z,97743.16
2022-12-04T07:30:54.910Z,97739.41
2022-12-04T07:31:57.083Z,97750.88
2022-12-04T07:32:58.868Z,97746.34
2022-12-04T07:34:00.542Z,97756.66
2022-12-04T07:35:02.398Z,97760.00
2022-12-04T07:36:06.086Z,97759.25
2022-12-04T07:37:07.958Z,97756.84
2022-12-04T07:38:10.146Z,97753.91
2022-12-04T07:39:11.808Z,97744.78
2022-12-04T07:40:14.234Z,97748.97
2022-12-04T07:41:15.913Z,97748.50
2022-12-04T07:42:23.847Z,97740.56
2022-12-04T07:43:27.337Z,97744.38
2022-12-04T07:44:32.242Z,97746.63
2022-12-04T07:45:34.033Z,97743.28
2022-12-04T07:46:35.864Z,97749.44
2022-12-04T07:47:37.668Z,97752.38
2022-12-04T07:48:39.487Z,97752.63
2022-12-04T07:49:41.123Z,97752.94
2022-12-04T07:50:43.012Z,97742.19
2022-12-04T07:51:44.547Z,97740.63
2022-12-04T07:52:46.124Z,97742.34
2022-12-04T07:53:49.227Z,97751.22
2022-12-04T07:54:50.810Z,97752.38
2022-12-04T07:55:56.111Z,97748.28
2022-12-04T07:56:57.937Z,97749.06
2022-12-04T07:57:59.629Z,97753.03
2022-12-04T07:59:02.253Z,97756.22
2022-12-04T08:00:04.506Z,97755.63
2022-12-04T08:01:15.881Z,97753.19
2022-12-04T08:02:17.559Z,97754.47
2022-12-04T08:03:19.116Z,97754.47
2022-12-04T08:04:23.990Z,97754.47
2022-12-04T08:05:26.023Z,97761.47
2022-12-04T08:06:29.458Z,97755.63
2022-12-04T08:07:32.477Z,97753.47
2022-12-04T08:08:35.381Z,97762.19
2022-12-04T08:09:36.919Z,97759.94
2022-12-04T08:10:41.523Z,97757.50
2022-12-04T08:11:43.091Z,97756.34
2022-12-04T08:12:44.741Z,97759.50
2022-12-04T08:13:46.454Z,97767.41
2022-12-04T08:14:49.713Z,97759.31
2022-12-04T08:15:51.852Z,97757.66
2022-12-04T08:16:53.702Z,97751.16
2022-12-04T08:17:55.331Z,97758.88
2022-12-04T08:18:57.398Z,97749.97
2022-12-04T08:19:59.065Z,97752.06
2022-12-04T08:21:22.270Z,97750.50
2022-12-04T08:22:25.439Z,97755.03
2022-12-04T08:23:27.124Z,97749.09
2022-12-04T08:24:28.676Z,97756.81
2022-12-04T08:25:30.280Z,97759.41
2022-12-04T08:26:33.735Z,97759.59
2022-12-04T08:27:36.030Z,97756.66
2022-12-04T08:28:38.075Z,97754.97
2022-12-04T08:29:39.613Z,97754.91
2022-12-04T08:30:41.189Z,97759.69
2022-12-04T08:31:42.834Z,97756.13
2022-12-04T08:32:44.609Z,97752.25
2022-12-04T08:33:48.069Z,97758.91
2022-12-04T08:34:55.726Z,97751.16
2022-12-04T08:35:58.529Z,97749.78
2022-12-04T08:37:00.125Z,97742.16
2022-12-04T08:38:01.700Z,97735.25
2022-12-04T08:39:03.713Z,97737.31
2022-12-04T08:40:06.026Z,97741.28
2022-12-04T08:41:15.039Z,97732.97
2022-12-04T08:42:16.606Z,97735.16
2022-12-04T08:43:18.235Z,97739.38
2022-12-04T08:44:19.862Z,97736.13
2022-12-04T08:45:21.413Z,97734.06
2022-12-04T08:46:24.942Z,97734.34
2022-12-04T08:47:26.615Z,97733.63
2022-12-04T08:48:28.385Z,97732.66
2022-12-04T08:49:30.435Z,97727.00
2022-12-04T08:50:32.054Z,97724.06
2022-12-04T08:51:37.559Z,97722.47
2022-12-04T08:52:39.136Z,97730.78
2022-12-04T08:53:40.782Z,97726.72
2022-12-04T08:54:42.332Z,97725.50
2022-12-04T08:55:43.970Z,97729.59
2022-12-04T08:56:45.547Z,97723.44
2022-12-04T08:57:47.076Z,97716.72
2022-12-04T08:58:48.811Z,97714.94
2022-12-04T08:59:50.405Z,97705.63
2022-12-04T09:00:52.065Z,97709.13
2022-12-04T09:01:53.741Z,97709.41
2022-12-04T09:02:55.370Z,97706.13
2022-12-04T09:03:57.207Z,97702.88
2022-12-04T09:04:58.945Z,97705.53
2022-12-04T09:06:02.007Z,97706.63
2022-12-04T09:07:03.669Z,97699.06
2022-12-04T09:08:05.771Z,97708.59
2022-12-04T09:09:07.389Z,97698.41
2022-12-04T09:10:09.626Z,97686.00
2022-12-04T09:11:22.422Z,97691.53
2022-12-04T09:12:23.966Z,97688.56
2022-12-04T09:13:25.494Z,97685.91
2022-12-04T09:14:27.068Z,97683.09
2022-12-04T09:15:28.693Z,97677.34
2022-12-04T09:16:31.026Z,97673.16
2022-12-04T09:17:34.006Z,97665.53
2022-12-04T09:18:37.203Z,97668.69
2022-12-04T09:19:38.988Z,97666.59
2022-12-04T09:20:40.576Z,97653.13
2022-12-04T09:21:42.238Z,97656.22
2022-12-04T09:23:02.730Z,97662.63
2022-12-04T09:24:05.367Z,97658.16
2022-12-04T09:25:07.773Z,97668.81
2022-12-04T09:26:27.682Z,97664.59
2022-12-04T09:27:29.236Z,97652.22
2022-12-04T09:28:31.217Z,97659.38
2022-12-04T09:29:32.754Z,97659.34
2022-12-04T09:30:34.294Z,97653.84
2022-12-04T09:31:36.027Z,97650.06
2022-12-04T09:32:38.252Z,97655.88
2022-12-04T09:33:39.859Z,97646.13
2022-12-04T09:34:41.426Z,97638.97
2022-12-04T09:35:42.952Z,97639.13
2022-12-04T09:36:44.510Z,97636.91
2022-12-04T09:37:46.125Z,97636.88
2022-12-04T09:38:50.640Z,97634.72
2022-12-04T09:39:52.307Z,97627.84
2022-12-04T09:41:02.574Z,97624.28
2022-12-04T09:42:25.226Z,97625.63
2022-12-04T09:43:41.906Z,97611.81
2022-12-04T09:44:59.889Z,97611.72
2022-12-04T09:46:09.668Z,97606.63
2022-12-04T09:47:39.884Z,97604.00
2022-12-04T09:48:44.423Z,97602.75
2022-12-04T09:50:11.911Z,97613.19
2022-12-04T09:51:19.004Z,97606.03
2022-12-04T09:52:31.074Z,97603.13
2022-12-04T09:54:09.776Z,97599.78
2022-12-04T09:55:17.943Z,97595.97
2022-12-04T09:56:21.300Z,97588.97
2022-12-04T09:57:46.805Z,97588.88
2022-12-04T09:59:04.396Z,97579.50
2022-12-04T10:00:10.953Z,97575.63
2022-12-04T10:01:21.360Z,97568.56
2022-12-04T10:02:36.736Z,97571.63
2022-12-04T10:03:40.075Z,97567.91
2022-12-04T10:04:41.880Z,97568.53
2022-12-04T10:06:07.981Z,97561.94
2022-12-04T10:07:19.580Z,97560.84
2022-12-04T10:08:40.364Z,97562.84
2022-12-04T10:09:56.396Z,97563.81
2022-12-04T10:11:10.022Z,97553.88
2022-12-04T10:12:30.007Z,97551.38
2022-12-04T10:14:03.581Z,97548.81
2022-12-04T10:15:35.697Z,97549.28
2022-12-04T10:17:02.356Z,97556.88
2022-12-04T10:18:32.625Z,97546.44
2022-12-04T10:19:52.909Z,97544.72
2022-12-04T10:21:06.365Z,97544.88
2022-12-04T10:22:16.968Z,97551.66
2022-12-04T10:23:43.269Z,97552.47
2022-12-04T10:24:48.295Z,97555.47
2022-12-04T10:25:54.887Z,97548.38
2022-12-04T10:27:01.488Z,97554.97
2022-12-04T10:28:08.850Z,97551.03
2022-12-04T10:29:38.891Z,97552.13
2022-12-04T10:30:42.909Z,97547.88
2022-12-04T10:31:46.632Z,97550.72
2022-12-04T10:32:52.466Z,97544.88
2022-12-04T10:33:56.061Z,97539.19
2022-12-04T10:35:08.272Z,97536.38
2022-12-04T10:36:34.328Z,97532.06
2022-12-04T10:37:41.629Z,97535.06
2022-12-04T10:39:07.687Z,97534.44
2022-12-04T10:40:22.524Z,97532.25
2022-12-04T10:41:57.736Z,97528.78
2022-12-04T10:43:22.316Z,97529.53
2022-12-04T10:44:24.139Z,97530.78
2022-12-04T10:45:25.724Z,97526.53
2022-12-04T10:46:29.525Z,97519.13
2022-12-04T10:47:31.788Z,97524.50
2022-12-04T10:48:37.977Z,97526.91
2022-12-04T10:49:39.849Z,97509.53
2022-12-04T10:50:41.441Z,97509.19
2022-12-04T10:51:43.777Z,97514.06
2022-12-04T10:52:45.620Z,97522.41
2022-12-04T10:53:49.743Z,97516.56
2022-12-04T10:54:58.842Z,97515.28
2022-12-04T10:56:15.983Z,97517.19
2022-12-04T10:57:18.023Z,97520.97
2022-12-04T10:58:20.656Z,97516.84
2022-12-04T10:59:22.543Z,97515.25
2022-12-04T11:00:30.566Z,97521.38
2022-12-04T11:01:34.428Z,97518.56
2022-12-04T11:02:38.627Z,97519.88
2022-12-04T11:03:44.266Z,97513.53
2022-12-04T11:04:56.988Z,97511.66
2022-12-04T11:06:01.456Z,97513.03
2022-12-04T11:07:24.906Z,97523.31
2022-12-04T11:08:33.957Z,97516.38
2022-12-04T11:09:35.730Z,97519.53
2022-12-04T11:10:43.492Z,97519.34
2022-12-04T11:11:45.038Z,97518.22
2022-12-04T11:13:06.696Z,97523.72
2022-12-04T11:14:15.210Z,97510.88
2022-12-04T11:15:17.164Z,97514.84
2022-12-04T11:16:37.924Z,97512.75
2022-12-04T11:17:40.534Z,97508.97
2022-12-04T11:18:50.248Z,97512.38
2022-12-04T11:20:20.638Z,97504.75
2022-12-04T11:21:29.555Z,97510.84
2022-12-04T11:22:31.766Z,97511.13
2022-12-04T11:23:45.699Z,97502.09
2022-12-04T11:24:54.327Z,97498.25
2022-12-04T11:26:05.250Z,97499.25
2022-12-04T11:27:16.365Z,97507.19
2022-12-04T11:28:40.513Z,97508.59
2022-12-04T11:29:46.596Z,97506.09
2022-12-04T11:30:55.148Z,97501.25
2022-12-04T11:32:01.424Z,97500.34
2022-12-04T11:33:37.774Z,97508.91
2022-12-04T11:34:41.441Z,97506.78
2022-12-04T11:35:43.042Z,97507.41
2022-12-04T11:36:54.508Z,97513.47
2022-12-04T11:38:15.286Z,97506.84
2022-12-04T11:39:22.851Z,97506.84
2022-12-04T11:40:25.859Z,97508.69
2022-12-04T11:41:30.200Z,97504.91
2022-12-04T11:42:32.080Z,97501.13
2022-12-04T11:43:36.886Z,97499.34
2022-12-04T11:44:38.995Z,97498.41
2022-12-04T11:45:41.250Z,97508.66
2022-12-04T11:46:53.817Z,97512.75
2022-12-04T11:48:12.596Z,97517.47
2022-12-04T11:49:22.353Z,97515.53
2022-12-04T11:50:53.300Z,97513.50
2022-12-04T11:52:17.102Z,97513.31
2022-12-04T11:53:32.841Z,97516.91
2022-12-04T11:54:52.574Z,97508.97
2022-12-04T11:56:06.376Z,97511.66
2022-12-04T11:57:30.156Z,97512.34
2022-12-04T11:59:01.883Z,97515.53
2022-12-04T12:00:13.455Z,97518.03
2022-12-04T12:01:39.658Z,97511.28
2022-12-04T12:02:50.135Z,97510.63
2022-12-04T12:04:10.274Z,97506.16
2022-12-04T12:05:35.063Z,97501.25
2022-12-04T12:06:39.385Z,97497.72
2022-12-04T12:08:02.912Z,97499.91
2022-12-04T12:09:36.461Z,97496.03
2022-12-04T12:10:51.803Z,97497.75
2022-12-04T12:12:03.361Z,97493.28
2022-12-04T12:13:26.146Z,97500.75
2022-12-04T12:14:33.681Z,97491.31
2022-12-04T12:16:00.148Z,97494.22
2022-12-04T12:17:25.658Z,97485.38
2022-12-04T12:18:46.739Z,97493.00
2022-12-04T12:19:51.304Z,97490.50
2022-12-04T12:21:13.882Z,97487.34
2022-12-04T12:22:33.653Z,97487.63
2022-12-04T12:24:03.453Z,97488.56
2022-12-04T12:25:13.978Z,97485.16
2022-12-04T12:26:17.945Z,97487.50
2022-12-04T12:27:28.559Z,97481.50
2022-12-04T12:29:02.258Z,97478.28
2022-12-04T12:30:09.818Z,97472.81
2022-12-04T12:31:37.045Z,97471.72
2022-12-04T12:33:12.192Z,97470.06
2022-12-04T12:34:31.393Z,97469.34
2022-12-04T12:35:54.322Z,97467.75
2022-12-04T12:37:01.070Z,97468.22
2022-12-04T12:38:10.330Z,97470.13
2022-12-04T12:39:31.798Z,97464.88
2022-12-04T12:40:33.311Z,97467.13
2022-12-04T12:41:40.484Z,97468.88
2022-12-04T12:43:13.680Z,97464.06
2022-12-04T12:44:34.748Z,97468.34
2022-12-04T12:46:21.325Z,97462.16
2022-12-04T12:47:28.689Z,97449.19
2022-12-04T12:48:30.226Z,97457.56
2022-12-04T12:49:36.806Z,97452.97
2022-12-04T12:51:08.917Z,97448.50
2022-12-04T12:52:29.857Z,97459.03
2022-12-04T12:53:37.648Z,97457.47
2022-12-04T12:54:39.348Z,97460.16
2022-12-04T12:55:54.286Z,97459.03
2022-12-04T12:57:02.905Z,97461.25
2022-12-04T12:58:31.820Z,97456.88
2022-12-04T12:59:34.333Z,97455.63
2022-12-04T13:01:13.361Z,97439.25
2022-12-04T13:02:27.488Z,97445.94
2022-12-04T13:03:47.327Z,97441.19
2022-12-04T13:04:53.066Z,97447.22
2022-12-04T13:05:59.779Z,97444.75
2022-12-04T13:07:08.413Z,97443.16
2022-12-04T13:08:29.733Z,97435.75
2022-12-04T13:09:34.396Z,97437.66
2022-12-04T13:10:41.742Z,97443.56
2022-12-04T13:11:46.873Z,97440.44
2022-12-04T13:12:53.929Z,97445.94